sensor_id;sensor_type;location;lat;lon;timestamp;pressure;altitude;pressure_sealevel;temperature;humidity
80945;BME280;70400;50.934;11.590;2024-02-15T00:00:53;100409.41;;;9.15;94.79
80945;BME280;70400;50.934;11.590;2024-02-15T00:01:44;100409.31;;;9.17;95.14
80945;BME280;70400;50.934;11.590;2024-02-15T00:02:35;100406.78;;;9.15;95.20
80945;BME280;70400;50.934;11.590;2024-02-15T00:03:26;100406.78;;;9.26;94.86
80945;BME280;70400;50.934;11.590;2024-02-15T00:04:17;100404.00;;;9.28;94.80
80945;BME280;70400;50.934;11.590;2024-02-15T00:05:11;100406.78;;;9.26;94.86
80945;BME280;70400;50.934;11.590;2024-02-15T00:06:02;100406.78;;;9.26;94.91
80945;BME280;70400;50.934;11.590;2024-02-15T00:06:53;100408.44;;;9.27;94.66
80945;BME280;70400;50.934;11.590;2024-02-15T00:07:44;100407.25;;;9.20;94.89
80945;BME280;70400;50.934;11.590;2024-02-15T00:08:34;100406.53;;;9.18;95.28
80945;BME280;70400;50.934;11.590;2024-02-15T00:09:26;100414.69;;;9.15;95.55
80945;BME280;70400;50.934;11.590;2024-02-15T00:10:17;100413.03;;;9.14;95.33
80945;BME280;70400;50.934;11.590;2024-02-15T00:11:08;100412.72;;;9.28;95.56
80945;BME280;70400;50.934;11.590;2024-02-15T00:12:01;100415.75;;;9.24;94.85
80945;BME280;70400;50.934;11.590;2024-02-15T00:12:52;100416.59;;;9.24;94.94
80945;BME280;70400;50.934;11.590;2024-02-15T00:13:43;100418.84;;;9.29;94.67
80945;BME280;70400;50.934;11.590;2024-02-15T00:14:34;100415.88;;;9.22;94.80
80945;BME280;70400;50.934;11.590;2024-02-15T00:15:25;100417.78;;;9.20;95.29
80945;BME280;70400;50.934;11.590;2024-02-15T00:16:15;100411.94;;;9.17;95.12
80945;BME280;70400;50.934;11.590;2024-02-15T00:17:06;100415.16;;;9.20;95.30
80945;BME280;70400;50.934;11.590;2024-02-15T00:17:57;100417.41;;;9.25;95.15
80945;BME280;70400;50.934;11.590;2024-02-15T00:18:48;100414.69;;;9.15;95.06
80945;BME280;70400;50.934;11.590;2024-02-15T00:19:41;100412.88;;;9.16;95.55
80945;BME280;70400;50.934;11.590;2024-02-15T00:20:33;100410.25;;;9.16;95.41
80945;BME280;70400;50.934;11.590;2024-02-15T00:21:27;100413.59;;;9.18;95.34
80945;BME280;70400;50.934;11.590;2024-02-15T00:22:18;100417.19;;;9.17;95.22
80945;BME280;70400;50.934;11.590;2024-02-15T00:23:11;100414.56;;;9.17;95.29
80945;BME280;70400;50.934;11.590;2024-02-15T00:24:03;100413.59;;;9.18;95.26
80945;BME280;70400;50.934;11.590;2024-02-15T00:24:56;100410.84;;;9.19;95.36
80945;BME280;70400;50.934;11.590;2024-02-15T00:25:49;100412.16;;;9.25;95.42
80945;BME280;70400;50.934;11.590;2024-02-15T00:26:40;100417.66;;;9.22;95.27
80945;BME280;70400;50.934;11.590;2024-02-15T00:27:33;100417.53;;;9.23;94.88
80945;BME280;70400;50.934;11.590;2024-02-15T00:28:25;100416.94;;;9.20;95.06
80945;BME280;70400;50.934;11.590;2024-02-15T00:29:17;100415.50;;;9.16;95.17
80945;BME280;70400;50.934;11.590;2024-02-15T00:30:09;100419.94;;;9.15;95.16
80945;BME280;70400;50.934;11.590;2024-02-15T00:31:00;100418.84;;;9.18;95.21
80945;BME280;70400;50.934;11.590;2024-02-15T00:31:51;100411.69;;;9.20;95.26
80945;BME280;70400;50.934;11.590;2024-02-15T00:32:42;100419.59;;;9.20;95.44
80945;BME280;70400;50.934;11.590;2024-02-15T00:33:34;100413.84;;;9.15;95.23
80945;BME280;70400;50.934;11.590;2024-02-15T00:34:26;100420.88;;;9.25;95.48
80945;BME280;70400;50.934;11.590;2024-02-15T00:35:18;100415.75;;;9.24;95.09
80945;BME280;70400;50.934;11.590;2024-02-15T00:36:10;100419.84;;;9.17;94.91
80945;BME280;70400;50.934;11.590;2024-02-15T00:37:01;100411.69;;;9.20;95.17
80945;BME280;70400;50.934;11.590;2024-02-15T00:37:52;100420.78;;;9.16;95.38
80945;BME280;70400;50.934;11.590;2024-02-15T00:38:43;100416.13;;;9.19;95.19
80945;BME280;70400;50.934;11.590;2024-02-15T00:39:34;100416.13;;;9.19;95.31
80945;BME280;70400;50.934;11.590;2024-02-15T00:40:25;100417.06;;;9.18;95.19
80945;BME280;70400;50.934;11.590;2024-02-15T00:41:16;100419.31;;;9.23;95.00
80945;BME280;70400;50.934;11.590;2024-02-15T00:42:06;100415.03;;;9.22;95.24
80945;BME280;70400;50.934;11.590;2024-02-15T00:42:59;100408.34;;;9.18;95.07
80945;BME280;70400;50.934;11.590;2024-02-15T00:43:53;100415.66;;;9.14;95.22
80945;BME280;70400;50.934;11.590;2024-02-15T00:44:44;100419.13;;;9.15;95.64
80945;BME280;70400;50.934;11.590;2024-02-15T00:45:35;100421.50;;;9.18;95.49
80945;BME280;70400;50.934;11.590;2024-02-15T00:46:26;100419.69;;;9.18;95.41
80945;BME280;70400;50.934;11.590;2024-02-15T00:47:19;100418.53;;;9.11;95.55
80945;BME280;70400;50.934;11.590;2024-02-15T00:48:12;100412.31;;;9.12;95.93
80945;BME280;70400;50.934;11.590;2024-02-15T00:49:06;100410.25;;;9.16;95.79
80945;BME280;70400;50.934;11.590;2024-02-15T00:49:57;100415.66;;;9.14;95.55
80945;BME280;70400;50.934;11.590;2024-02-15T00:50:49;100415.66;;;9.14;96.06
80945;BME280;70400;50.934;11.590;2024-02-15T00:51:39;100413.03;;;9.14;95.84
80945;BME280;70400;50.934;11.590;2024-02-15T00:52:31;100415.50;;;9.16;95.89
80945;BME280;70400;50.934;11.590;2024-02-15T00:53:22;100419.13;;;9.15;95.37
80945;BME280;70400;50.934;11.590;2024-02-15T00:54:12;100410.50;;;9.12;95.95
80945;BME280;70400;50.934;11.590;2024-02-15T00:55:04;100413.84;;;9.15;95.77
80945;BME280;70400;50.934;11.590;2024-02-15T00:55:55;100411.13;;;9.16;95.88
80945;BME280;70400;50.934;11.590;2024-02-15T00:56:46;100412.06;;;9.15;95.41
80945;BME280;70400;50.934;11.590;2024-02-15T00:57:38;100414.44;;;9.18;95.90
80945;BME280;70400;50.934;11.590;2024-02-15T00:58:30;100417.19;;;9.17;95.83
80945;BME280;70400;50.934;11.590;2024-02-15T00:59:20;100413.75;;;9.16;95.84
80945;BME280;70400;50.934;11.590;2024-02-15T01:00:12;100410.84;;;9.19;95.67
80945;BME280;70400;50.934;11.590;2024-02-15T01:01:03;100411.22;;;9.15;95.66
80945;BME280;70400;50.934;11.590;2024-02-15T01:01:54;100410.03;;;9.19;95.86
80945;BME280;70400;50.934;11.590;2024-02-15T01:02:46;100409.06;;;9.20;95.51
80945;BME280;70400;50.934;11.590;2024-02-15T01:03:37;100413.59;;;9.29;95.48
80945;BME280;70400;50.934;11.590;2024-02-15T01:04:29;100418.44;;;9.33;94.84
80945;BME280;70400;50.934;11.590;2024-02-15T01:05:19;100417.31;;;9.26;94.88
80945;BME280;70400;50.934;11.590;2024-02-15T01:06:10;100412.41;;;9.22;95.04
80945;BME280;70400;50.934;11.590;2024-02-15T01:07:01;100424.72;;;9.21;95.13
80945;BME280;70400;50.934;11.590;2024-02-15T01:07:53;100421.25;;;9.21;94.85
80945;BME280;70400;50.934;11.590;2024-02-15T01:08:45;100414.06;;;9.23;95.17
80945;BME280;70400;50.934;11.590;2024-02-15T01:09:36;100417.78;;;9.20;95.43
80945;BME280;70400;50.934;11.590;2024-02-15T01:10:27;100417.31;;;9.26;95.23
80945;BME280;70400;50.934;11.590;2024-02-15T01:11:18;100414.06;;;9.23;95.23
80945;BME280;70400;50.934;11.590;2024-02-15T01:12:09;100418.50;;;9.22;95.26
80945;BME280;70400;50.934;11.590;2024-02-15T01:13:00;100408.47;;;9.16;95.41
80945;BME280;70400;50.934;11.590;2024-02-15T01:13:51;100412.78;;;9.17;95.64
80945;BME280;70400;50.934;11.590;2024-02-15T01:14:43;100410.72;;;9.21;95.56
80945;BME280;70400;50.934;11.590;2024-02-15T01:15:34;100411.13;;;9.16;95.66
80945;BME280;70400;50.934;11.590;2024-02-15T01:16:25;100416.47;;;9.15;95.91
80945;BME280;70400;50.934;11.590;2024-02-15T01:17:16;100409.31;;;9.17;95.90
80945;BME280;70400;50.934;11.590;2024-02-15T01:18:08;100410.50;;;9.12;95.66
80945;BME280;70400;50.934;11.590;2024-02-15T01:18:59;100406.94;;;9.13;95.95
80945;BME280;70400;50.934;11.590;2024-02-15T01:19:50;100407.03;;;9.12;96.08
80945;BME280;70400;50.934;11.590;2024-02-15T01:20:41;100409.06;;;9.20;96.01
80945;BME280;70400;50.934;11.590;2024-02-15T01:21:32;100405.84;;;9.16;95.80
80945;BME280;70400;50.934;11.590;2024-02-15T01:22:26;100405.25;;;9.12;95.97
80945;BME280;70400;50.934;11.590;2024-02-15T01:23:17;100404.03;;;9.17;96.01
80945;BME280;70400;50.934;11.590;2024-02-15T01:24:08;100404.63;;;9.20;95.67
80945;BME280;70400;50.934;11.590;2024-02-15T01:24:59;100411.19;;;9.26;95.42
80945;BME280;70400;50.934;11.590;2024-02-15T01:25:50;100399.81;;;9.25;95.53
80945;BME280;70400;50.934;11.590;2024-02-15T01:26:41;100406.78;;;9.26;95.12
80945;BME280;70400;50.934;11.590;2024-02-15T01:27:32;100402.13;;;9.19;95.43
80945;BME280;70400;50.934;11.590;2024-02-15T01:28:24;100405.34;;;9.22;95.35
80945;BME280;70400;50.934;11.590;2024-02-15T01:29:15;100402.97;;;9.19;95.41
80945;BME280;70400;50.934;11.590;2024-02-15T01:30:06;100393.78;;;9.13;95.83
80945;BME280;70400;50.934;11.590;2024-02-15T01:30:59;100402.25;;;9.17;95.90
80945;BME280;70400;50.934;11.590;2024-02-15T01:31:51;100398.06;;;9.15;95.63
80945;BME280;70400;50.934;11.590;2024-02-15T01:32:42;100400.44;;;9.18;95.75
80945;BME280;70400;50.934;11.590;2024-02-15T01:33:33;100401.41;;;9.17;95.63
80945;BME280;70400;50.934;11.590;2024-02-15T01:34:25;100393.63;;;9.15;95.60
80945;BME280;70400;50.934;11.590;2024-02-15T01:35:15;100405.72;;;9.18;95.73
80945;BME280;70400;50.934;11.590;2024-02-15T01:36:06;100397.34;;;9.24;95.55
80945;BME280;70400;50.934;11.590;2024-02-15T01:36:58;100404.41;;;9.12;95.82
80945;BME280;70400;50.934;11.590;2024-02-15T01:37:49;100400.69;;;9.15;96.06
80945;BME280;70400;50.934;11.590;2024-02-15T01:38:41;100401.41;;;9.17;96.10
80945;BME280;70400;50.934;11.590;2024-02-15T01:39:32;100403.91;;;9.18;95.70
80945;BME280;70400;50.934;11.590;2024-02-15T01:40:23;100404.63;;;9.20;95.52
80945;BME280;70400;50.934;11.590;2024-02-15T01:41:14;100403.69;;;9.21;95.47
80945;BME280;70400;50.934;11.590;2024-02-15T01:42:05;100399.81;;;9.25;95.33
80945;BME280;70400;50.934;11.590;2024-02-15T01:42:55;100396.00;;;9.18;95.56
80945;BME280;70400;50.934;11.590;2024-02-15T01:43:49;100398.91;;;9.15;95.56
80945;BME280;70400;50.934;11.590;2024-02-15T01:44:40;100396.25;;;9.15;95.75
80945;BME280;70400;50.934;11.590;2024-02-15T01:45:31;100401.53;;;9.15;95.74
80945;BME280;70400;50.934;11.590;2024-02-15T01:46:22;100403.06;;;9.18;95.72
80945;BME280;70400;50.934;11.590;2024-02-15T01:47:13;100399.72;;;9.16;95.67
80945;BME280;70400;50.934;11.590;2024-02-15T01:48:04;100405.72;;;9.18;95.64
80945;BME280;70400;50.934;11.590;2024-02-15T01:48:55;100401.78;;;9.12;95.83
80945;BME280;70400;50.934;11.590;2024-02-15T01:49:47;100402.72;;;9.22;95.89
80945;BME280;70400;50.934;11.590;2024-02-15T01:50:40;100399.97;;;9.12;95.73
80945;BME280;70400;50.934;11.590;2024-02-15T01:51:31;100397.72;;;9.08;95.72
80945;BME280;70400;50.934;11.590;2024-02-15T01:52:23;100397.34;;;9.12;96.12
80945;BME280;70400;50.934;11.590;2024-02-15T01:53:15;100391.38;;;9.10;96.11
80945;BME280;70400;50.934;11.590;2024-02-15T01:54:06;100394.72;;;9.12;95.90
80945;BME280;70400;50.934;11.590;2024-02-15T01:54:57;100397.22;;;9.14;95.82
80945;BME280;70400;50.934;11.590;2024-02-15T01:55:51;100393.16;;;9.10;96.11
80945;BME280;70400;50.934;11.590;2024-02-15T01:56:43;100394.72;;;9.12;95.93
80945;BME280;70400;50.934;11.590;2024-02-15T01:57:35;100397.22;;;9.14;95.84
80945;BME280;70400;50.934;11.590;2024-02-15T01:58:29;100400.13;;;9.11;95.81
80945;BME280;70400;50.934;11.590;2024-02-15T01:59:23;100396.63;;;9.10;96.22
80945;BME280;70400;50.934;11.590;2024-02-15T02:00:18;100386.63;;;9.04;96.19
80945;BME280;70400;50.934;11.590;2024-02-15T02:01:09;100391.38;;;9.10;96.64
80945;BME280;70400;50.934;11.590;2024-02-15T02:02:02;100393.88;;;9.12;96.15
80945;BME280;70400;50.934;11.590;2024-02-15T02:02:53;100393.28;;;9.20;95.86
80945;BME280;70400;50.934;11.590;2024-02-15T02:03:44;100399.97;;;9.12;95.76
80945;BME280;70400;50.934;11.590;2024-02-15T02:04:37;100394.84;;;9.11;95.95
80945;BME280;70400;50.934;11.590;2024-02-15T02:05:28;100392.44;;;9.08;95.82
80945;BME280;70400;50.934;11.590;2024-02-15T02:06:21;100385.53;;;9.07;96.18
80945;BME280;70400;50.934;11.590;2024-02-15T02:07:12;100391.38;;;9.10;96.27
80945;BME280;70400;50.934;11.590;2024-02-15T02:08:03;100394.41;;;9.06;96.21
80945;BME280;70400;50.934;11.590;2024-02-15T02:09:00;100394.50;;;9.04;96.25
80945;BME280;70400;50.934;11.590;2024-02-15T02:09:53;100392.25;;;9.00;96.44
80945;BME280;70400;50.934;11.590;2024-02-15T02:10:44;100393.78;;;9.02;96.55
80945;BME280;70400;50.934;11.590;2024-02-15T02:11:36;100393.94;;;9.01;96.71
80945;BME280;70400;50.934;11.590;2024-02-15T02:12:27;100392.44;;;9.08;96.50
80945;BME280;70400;50.934;11.590;2024-02-15T02:13:18;100396.06;;;9.07;96.34
80945;BME280;70400;50.934;11.590;2024-02-15T02:14:09;100394.41;;;9.06;96.22
80945;BME280;70400;50.934;11.590;2024-02-15T02:15:02;100384.44;;;9.09;96.32
80945;BME280;70400;50.934;11.590;2024-02-15T02:15:53;100391.84;;;9.16;96.18
80945;BME280;70400;50.934;11.590;2024-02-15T02:16:44;100391.97;;;9.14;95.81
80945;BME280;70400;50.934;11.590;2024-02-15T02:17:36;100393.63;;;9.15;96.14
80945;BME280;70400;50.934;11.590;2024-02-15T02:18:28;100390.53;;;9.10;95.98
80945;BME280;70400;50.934;11.590;2024-02-15T02:19:19;100392.44;;;9.08;96.11
80945;BME280;70400;50.934;11.590;2024-02-15T02:20:10;100391.38;;;9.10;96.42
80945;BME280;70400;50.934;11.590;2024-02-15T02:21:04;100390.88;;;9.17;96.17
80945;BME280;70400;50.934;11.590;2024-02-15T02:21:56;100389.66;;;9.21;95.69
80945;BME280;70400;50.934;11.590;2024-02-15T02:22:48;100392.69;;;9.16;95.84
80945;BME280;70400;50.934;11.590;2024-02-15T02:23:41;100393.78;;;9.13;95.93
80945;BME280;70400;50.934;11.590;2024-02-15T02:24:36;100385.16;;;9.11;95.67
80945;BME280;70400;50.934;11.590;2024-02-15T02:25:30;100388.25;;;9.17;95.78
80945;BME280;70400;50.934;11.590;2024-02-15T02:26:22;100388.25;;;9.17;95.84
80945;BME280;70400;50.934;11.590;2024-02-15T02:27:14;100388.97;;;9.19;95.79
80945;BME280;70400;50.934;11.590;2024-02-15T02:28:06;100391.84;;;9.16;95.79
80945;BME280;70400;50.934;11.590;2024-02-15T02:28:57;100389.81;;;9.08;96.05
80945;BME280;70400;50.934;11.590;2024-02-15T02:29:50;100387.66;;;9.13;96.10
80945;BME280;70400;50.934;11.590;2024-02-15T02:30:41;100394.09;;;9.20;95.83
80945;BME280;70400;50.934;11.590;2024-02-15T02:31:33;100393.28;;;9.20;95.83
80945;BME280;70400;50.934;11.590;2024-02-15T02:32:25;100388.13;;;9.18;95.83
80945;BME280;70400;50.934;11.590;2024-02-15T02:33:17;100391.72;;;9.17;95.48
80945;BME280;70400;50.934;11.590;2024-02-15T02:34:11;100393.63;;;9.15;95.67
80945;BME280;70400;50.934;11.590;2024-02-15T02:35:05;100387.44;;;9.16;95.73
80945;BME280;70400;50.934;11.590;2024-02-15T02:35:57;100384.91;;;9.15;95.83
80945;BME280;70400;50.934;11.590;2024-02-15T02:36:48;100385.63;;;9.17;95.94
80945;BME280;70400;50.934;11.590;2024-02-15T02:37:41;100387.53;;;9.15;95.92
80945;BME280;70400;50.934;11.590;2024-02-15T02:38:32;100391.84;;;9.16;95.95
80945;BME280;70400;50.934;11.590;2024-02-15T02:39:23;100394.34;;;9.17;95.93
80945;BME280;70400;50.934;11.590;2024-02-15T02:40:14;100392.91;;;9.13;95.87
80945;BME280;70400;50.934;11.590;2024-02-15T02:41:06;100394.47;;;9.16;96.04
80945;BME280;70400;50.934;11.590;2024-02-15T02:41:57;100391.25;;;9.12;96.03
80945;BME280;70400;50.934;11.590;2024-02-15T02:43:41;100390.06;;;9.16;96.21
80945;BME280;70400;50.934;11.590;2024-02-15T02:44:32;100391.72;;;9.17;95.94
80945;BME280;70400;50.934;11.590;2024-02-15T02:45:23;100387.91;;;9.21;95.64
80945;BME280;70400;50.934;11.590;2024-02-15T02:46:14;100392.56;;;9.18;95.91
80945;BME280;70400;50.934;11.590;2024-02-15T02:47:05;100388.38;;;9.15;96.05
80945;BME280;70400;50.934;11.590;2024-02-15T02:47:56;100393.16;;;9.10;95.93
80945;BME280;70400;50.934;11.590;2024-02-15T02:48:47;100393.16;;;9.10;96.34
80945;BME280;70400;50.934;11.590;2024-02-15T02:49:38;100392.34;;;9.09;96.33
80945;BME280;70400;50.934;11.590;2024-02-15T02:50:29;100389.00;;;9.07;96.42
80945;BME280;70400;50.934;11.590;2024-02-15T02:51:20;100395.69;;;9.11;96.58
80945;BME280;70400;50.934;11.590;2024-02-15T02:52:11;100388.16;;;9.07;96.50
80945;BME280;70400;50.934;11.590;2024-02-15T02:53:02;100388.41;;;9.04;96.78
80945;BME280;70400;50.934;11.590;2024-02-15T02:53:52;100383.97;;;9.04;96.76
80945;BME280;70400;50.934;11.590;2024-02-15T02:54:44;100387.66;;;9.13;96.54
80945;BME280;70400;50.934;11.590;2024-02-15T02:55:34;100387.06;;;9.09;96.34
80945;BME280;70400;50.934;11.590;2024-02-15T02:56:25;100386.97;;;9.11;96.63
80945;BME280;70400;50.934;11.590;2024-02-15T02:57:16;100382.91;;;9.07;96.37
80945;BME280;70400;50.934;11.590;2024-02-15T02:58:07;100387.19;;;9.08;96.58
80945;BME280;70400;50.934;11.590;2024-02-15T02:58:58;100385.75;;;9.15;96.61
80945;BME280;70400;50.934;11.590;2024-02-15T02:59:49;100385.75;;;9.15;95.77
80945;BME280;70400;50.934;11.590;2024-02-15T03:00:43;100386.97;;;9.11;96.24
80945;BME280;70400;50.934;11.590;2024-02-15T03:01:34;100382.19;;;9.05;96.47
80945;BME280;70400;50.934;11.590;2024-02-15T03:02:25;100379.28;;;9.08;96.41
80945;BME280;70400;50.934;11.590;2024-02-15T03:03:16;100389.97;;;9.06;96.46
80945;BME280;70400;50.934;11.590;2024-02-15T03:04:07;100381.94;;;9.08;96.62
80945;BME280;70400;50.934;11.590;2024-02-15T03:04:58;100383.88;;;9.06;96.60
80945;BME280;70400;50.934;11.590;2024-02-15T03:05:52;100392.09;;;9.12;96.20
80945;BME280;70400;50.934;11.590;2024-02-15T03:06:45;100391.25;;;9.12;96.30
80945;BME280;70400;50.934;11.590;2024-02-15T03:07:36;100389.19;;;9.16;96.18
80945;BME280;70400;50.934;11.590;2024-02-15T03:08:27;100388.75;;;9.10;96.40
80945;BME280;70400;50.934;11.590;2024-02-15T03:09:18;100389.59;;;9.11;96.31
80945;BME280;70400;50.934;11.590;2024-02-15T03:10:11;100386.09;;;9.10;96.39
80945;BME280;70400;50.934;11.590;2024-02-15T03:11:05;100385.88;;;9.13;96.29
80945;BME280;70400;50.934;11.590;2024-02-15T03:11:56;100384.91;;;9.15;96.03
80945;BME280;70400;50.934;11.590;2024-02-15T03:12:47;100389.56;;;9.22;95.99
80945;BME280;70400;50.934;11.590;2024-02-15T03:13:40;100385.38;;;9.20;95.84
80945;BME280;70400;50.934;11.590;2024-02-15T03:14:30;100388.13;;;9.18;95.79
80945;BME280;70400;50.934;11.590;2024-02-15T03:15:23;100386.09;;;9.22;95.80
80945;BME280;70400;50.934;11.590;2024-02-15T03:16:13;100385.63;;;9.17;95.98
80945;BME280;70400;50.934;11.590;2024-02-15T03:17:04;100385.25;;;9.21;95.63
80945;BME280;70400;50.934;11.590;2024-02-15T03:17:56;100384.41;;;9.21;95.75
80945;BME280;70400;50.934;11.590;2024-02-15T03:18:48;100385.13;;;9.23;95.63
80945;BME280;70400;50.934;11.590;2024-02-15T03:19:39;100381.31;;;9.16;96.04
80945;BME280;70400;50.934;11.590;2024-02-15T03:20:31;100385.28;;;9.10;96.27
80945;BME280;70400;50.934;11.590;2024-02-15T03:21:22;100391.63;;;9.07;96.34
80945;BME280;70400;50.934;11.590;2024-02-15T03:22:13;100388.41;;;9.04;96.38
80945;BME280;70400;50.934;11.590;2024-02-15T03:23:04;100389.97;;;9.06;96.71
80945;BME280;70400;50.934;11.590;2024-02-15T03:23:55;100384.94;;;9.03;96.78
80945;BME280;70400;50.934;11.590;2024-02-15T03:24:46;100388.53;;;9.02;96.89
80945;BME280;70400;50.934;11.590;2024-02-15T03:25:36;100393.22;;;8.99;97.01
80945;BME280;70400;50.934;11.590;2024-02-15T03:26:32;100393.16;;;9.10;96.77
80945;BME280;70400;50.934;11.590;2024-02-15T03:27:29;100387.19;;;9.08;96.65
80945;BME280;70400;50.934;11.590;2024-02-15T03:28:20;100392.13;;;9.01;96.92
80945;BME280;70400;50.934;11.590;2024-02-15T03:29:11;100391.28;;;9.01;96.98
80945;BME280;70400;50.934;11.590;2024-02-15T03:30:02;100385.69;;;8.94;97.14
80945;BME280;70400;50.934;11.590;2024-02-15T03:30:55;100391.78;;;8.95;97.17
80945;BME280;70400;50.934;11.590;2024-02-15T03:31:46;100389.34;;;9.03;97.61
80945;BME280;70400;50.934;11.590;2024-02-15T03:32:39;100387.59;;;9.03;97.03
80945;BME280;70400;50.934;11.590;2024-02-15T03:33:31;100392.34;;;9.09;96.72
80945;BME280;70400;50.934;11.590;2024-02-15T03:34:25;100394.97;;;9.09;96.61
80945;BME280;70400;50.934;11.590;2024-02-15T03:35:17;100382.19;;;9.05;96.49
80945;BME280;70400;50.934;11.590;2024-02-15T03:36:08;100397.97;;;9.05;96.64
80945;BME280;70400;50.934;11.590;2024-02-15T03:37:01;100387.44;;;9.05;96.69
80945;BME280;70400;50.934;11.590;2024-02-15T03:37:57;100393.78;;;9.02;96.42
80945;BME280;70400;50.934;11.590;2024-02-15T03:38:47;100390.56;;;8.99;97.09
80945;BME280;70400;50.934;11.590;2024-02-15T03:39:39;100393.22;;;8.99;96.93
80945;BME280;70400;50.934;11.590;2024-02-15T03:40:30;100393.94;;;9.01;97.29
80945;BME280;70400;50.934;11.590;2024-02-15T03:41:23;100395.94;;;8.97;97.27
80945;BME280;70400;50.934;11.590;2024-02-15T03:42:14;100394.25;;;9.07;97.01
80945;BME280;70400;50.934;11.590;2024-02-15T03:43:04;100396.41;;;9.13;96.53
80945;BME280;70400;50.934;11.590;2024-02-15T03:43:58;100397.81;;;9.18;96.44
80945;BME280;70400;50.934;11.590;2024-02-15T03:44:50;100399.03;;;9.13;96.23
80945;BME280;70400;50.934;11.590;2024-02-15T03:45:41;100388.41;;;9.04;96.27
80945;BME280;70400;50.934;11.590;2024-02-15T03:46:35;100391.53;;;8.98;96.49
80945;BME280;70400;50.934;11.590;2024-02-15T03:47:26;100391.78;;;8.95;97.01
80945;BME280;70400;50.934;11.590;2024-02-15T03:48:20;100393.22;;;8.99;96.86
80945;BME280;70400;50.934;11.590;2024-02-15T03:49:11;100393.53;;;9.05;97.05
80945;BME280;70400;50.934;11.590;2024-02-15T03:50:02;100400.84;;;9.02;97.03
80945;BME280;70400;50.934;11.590;2024-02-15T03:50:53;100397.50;;;9.00;96.60
80945;BME280;70400;50.934;11.590;2024-02-15T03:51:44;100397.50;;;9.00;97.02
80945;BME280;70400;50.934;11.590;2024-02-15T03:52:36;100396.06;;;9.07;96.90
80945;BME280;70400;50.934;11.590;2024-02-15T03:53:27;100403.59;;;9.11;96.82
80945;BME280;70400;50.934;11.590;2024-02-15T03:54:20;100408.22;;;9.08;96.68
80945;BME280;70400;50.934;11.590;2024-02-15T03:55:12;100401.31;;;9.07;96.41
80945;BME280;70400;50.934;11.590;2024-02-15T03:56:04;100404.91;;;9.06;96.40
80945;BME280;70400;50.934;11.590;2024-02-15T03:56:55;100403.59;;;9.11;96.60
80945;BME280;70400;50.934;11.590;2024-02-15T03:57:48;100402.34;;;9.16;96.36
80945;BME280;70400;50.934;11.590;2024-02-15T03:58:40;100399.72;;;9.16;96.43
80945;BME280;70400;50.934;11.590;2024-02-15T03:59:30;100401.16;;;9.20;96.18
80945;BME280;70400;50.934;11.590;2024-02-15T04:00:23;100401.53;;;9.15;96.17
80945;BME280;70400;50.934;11.590;2024-02-15T04:01:16;100399.50;;;9.07;96.59
80945;BME280;70400;50.934;11.590;2024-02-15T04:02:07;100403.22;;;9.05;96.64
80945;BME280;70400;50.934;11.590;2024-02-15T04:03:03;100403.22;;;9.05;96.74
80945;BME280;70400;50.934;11.590;2024-02-15T04:03:55;100399.75;;;9.04;96.76
80945;BME280;70400;50.934;11.590;2024-02-15T04:04:46;100401.56;;;9.04;96.83
80945;BME280;70400;50.934;11.590;2024-02-15T04:05:38;100401.56;;;9.04;96.93
80945;BME280;70400;50.934;11.590;2024-02-15T04:06:29;100401.56;;;9.04;97.19
80945;BME280;70400;50.934;11.590;2024-02-15T04:07:22;100396.41;;;9.02;97.15
80945;BME280;70400;50.934;11.590;2024-02-15T04:08:16;100400.47;;;9.06;96.76
80945;BME280;70400;50.934;11.590;2024-02-15T04:09:07;100399.88;;;9.03;96.87
80945;BME280;70400;50.934;11.590;2024-02-15T04:09:58;100402.41;;;9.04;97.01
80945;BME280;70400;50.934;11.590;2024-02-15T04:10:52;100401.19;;;9.08;97.10
80945;BME280;70400;50.934;11.590;2024-02-15T04:11:44;100399.41;;;9.09;97.11
80945;BME280;70400;50.934;11.590;2024-02-15T04:12:38;100396.56;;;9.01;96.82
80945;BME280;70400;50.934;11.590;2024-02-15T04:13:28;100399.88;;;9.03;96.98
80945;BME280;70400;50.934;11.590;2024-02-15T04:14:19;100408.38;;;9.06;97.14
80945;BME280;70400;50.934;11.590;2024-02-15T04:15:10;100403.22;;;9.05;96.91
80945;BME280;70400;50.934;11.590;2024-02-15T04:16:08;100401.78;;;9.12;96.82
80945;BME280;70400;50.934;11.590;2024-02-15T04:17:00;100405.38;;;9.11;96.57
80945;BME280;70400;50.934;11.590;2024-02-15T04:17:51;100405.50;;;9.09;96.77
80945;BME280;70400;50.934;11.590;2024-02-15T04:18:46;100408.00;;;9.11;96.77
80945;BME280;70400;50.934;11.590;2024-02-15T04:19:38;100406.78;;;9.15;96.71
80945;BME280;70400;50.934;11.590;2024-02-15T04:20:29;100404.91;;;9.06;96.92
80945;BME280;70400;50.934;11.590;2024-02-15T04:21:19;100405.38;;;9.11;96.78
80945;BME280;70400;50.934;11.590;2024-02-15T04:22:10;100404.41;;;9.12;96.61
80945;BME280;70400;50.934;11.590;2024-02-15T04:23:01;100397.03;;;9.06;96.97
80945;BME280;70400;50.934;11.590;2024-02-15T04:23:52;100395.22;;;9.06;97.00
80945;BME280;70400;50.934;11.590;2024-02-15T04:24:44;100399.41;;;9.09;97.35
80945;BME280;70400;50.934;11.590;2024-02-15T04:25:36;100396.41;;;9.13;96.80
80945;BME280;70400;50.934;11.590;2024-02-15T04:26:27;100399.41;;;9.09;96.80
80945;BME280;70400;50.934;11.590;2024-02-15T04:27:20;100403.59;;;9.11;96.66
80945;BME280;70400;50.934;11.590;2024-02-15T04:28:11;100404.41;;;9.12;97.00
80945;BME280;70400;50.934;11.590;2024-02-15T04:29:02;100403.31;;;9.15;96.90
80945;BME280;70400;50.934;11.590;2024-02-15T04:29:57;100409.78;;;9.10;96.46
80945;BME280;70400;50.934;11.590;2024-02-15T04:30:48;100409.66;;;9.12;96.83
80945;BME280;70400;50.934;11.590;2024-02-15T04:31:39;100409.22;;;9.07;96.59